Flight Track Log - Related Links

Times and Time Zones

All times are in EDT time to prevent confusion due to time zone crossing. See the JEX3117 flight status page for this flight to view local times or setup timezone preferences in your user account.

Time Position Orientation Groundspeed Altitude Reporting Facility
EDT Latitude Longitude Course Direction KTS MPH feet Rate Location/Type
Sun 06:10:00 AM 35.1918 136.9886 24° Northeast  Level Estimated
Sun 06:11:00 AM 35.3028 137.0500 24° Northeast  Level Estimated
Sun 06:12:00 AM 35.4139 137.1116 24° Northeast  Level Estimated
Sun 06:13:00 AM 35.5249 137.1734 24° Northeast  Level Estimated
Sun 06:14:00 AM 35.6359 137.2353 24° Northeast  Level Estimated
Sun 06:15:00 AM 35.7469 137.2974 24° Northeast  Level Estimated
Sun 06:16:00 AM 35.8578 137.3597 24° Northeast  Level Estimated
Sun 06:17:00 AM 35.9687 137.4221 25° Northeast  Level Estimated
Sun 06:18:00 AM 36.0796 137.4848 25° Northeast  Level Estimated
Sun 06:19:00 AM 36.1904 137.5476 25° Northeast  Level Estimated
Sun 06:20:00 AM 36.3012 137.6106 25° Northeast  Level Estimated
Sun 06:21:00 AM 36.4119 137.6738 25° Northeast  Level Estimated
Sun 06:22:00 AM 36.5227 137.7371 25° Northeast  Level Estimated
Sun 06:23:00 AM 36.6334 137.8006 25° Northeast  Level Estimated
Sun 06:24:00 AM 36.7440 137.8643 25° Northeast  Level Estimated
Sun 06:25:00 AM 36.8547 137.9282 25° Northeast  Level Estimated
Sun 06:26:00 AM 36.9652 137.9923 25° Northeast  Level Estimated
Sun 06:27:00 AM 37.0758 138.0566 25° Northeast  Level Estimated
Sun 06:28:00 AM 37.1863 138.1210 25° Northeast  Level Estimated
Sun 06:29:00 AM 37.2968 138.1857 25° Northeast  Level Estimated
Sun 06:30:00 AM 37.4073 138.2505 25° Northeast  Level Estimated
Sun 06:31:00 AM 37.5177 138.3156 25° Northeast  Level Estimated
Sun 06:32:00 AM 37.6281 138.3808 25° Northeast  Level Estimated
Sun 06:33:00 AM 37.7384 138.4462 25° Northeast  Level Estimated
Sun 06:34:00 AM 37.8487 138.5118 25° Northeast  Level Estimated
Sun 06:35:00 AM 37.9590 138.5776 25° Northeast  Level Estimated
Sun 06:36:00 AM 38.0692 138.6436 25° Northeast  Level Estimated
Sun 06:37:00 AM 38.1794 138.7098 25° Northeast  Level Estimated
Sun 06:38:00 AM 38.2896 138.7762 25° Northeast  Level Estimated
Sun 06:39:00 AM 38.3997 138.8428 25° Northeast  Level Estimated
Sun 06:40:00 AM 38.5083 138.9087 25° Northeast  Level Estimated
Sun 06:41:00 AM 38.6169 138.9748 25° Northeast  Level Estimated
Sun 06:42:00 AM 38.7254 139.0411 25° Northeast  Level Estimated
Sun 06:43:00 AM 38.8338 139.1075 26° Northeast  Level Estimated
Sun 06:44:00 AM 38.9423 139.1742 26° Northeast  Level Estimated
Sun 06:45:00 AM 39.0507 139.2411 26° Northeast  Level Estimated
Sun 06:46:00 AM 39.1590 139.3082 26° Northeast  Level Estimated
Sun 06:47:00 AM 39.2673 139.3755 26° Northeast  Level Estimated
Sun 06:48:00 AM 39.3756 139.4431 26° Northeast  Level Estimated
Sun 06:49:00 AM 39.4838 139.5108 26° Northeast  Level Estimated
Sun 06:50:00 AM 39.5920 139.5787 26° Northeast  Level Estimated
Sun 06:51:00 AM 39.7002 139.6469 26° Northeast  Level Estimated
Sun 06:52:00 AM 39.8083 139.7153 26° Northeast  Level Estimated
Sun 06:53:00 AM 39.9164 139.7838 26° Northeast  Level Estimated
Sun 06:54:00 AM 40.0244 139.8526 26° Northeast  Level Estimated
Sun 06:55:00 AM 40.1324 139.9217 26° Northeast  Level Estimated
Sun 06:56:00 AM 40.2404 139.9909 26° Northeast  Level Estimated
Sun 06:57:00 AM 40.3483 140.0604 26° Northeast  Level Estimated
Sun 06:58:00 AM 40.4562 140.1300 26° Northeast  Level Estimated
Sun 06:59:00 AM 40.5640 140.2000 26° Northeast  Level Estimated
Sun 07:00:00 AM 40.6718 140.2701 26° Northeast  Level Estimated
Sun 07:01:00 AM 40.7795 140.3404 26° Northeast  Level Estimated
Sun 07:02:00 AM 40.8872 140.4110 26° Northeast  Level Estimated
Sun 07:03:00 AM 40.9949 140.4819 26° Northeast  Level Estimated
Sun 07:04:00 AM 41.1025 140.5529 26° Northeast  Level Estimated
Sun 07:05:00 AM 41.2101 140.6242 26° Northeast  Level Estimated
Sun 07:06:00 AM 41.3176 140.6957 27° Northeast  Level Estimated
Sun 07:07:00 AM 41.4251 140.7675 27° Northeast  Level Estimated
Sun 07:08:00 AM 41.5325 140.8394 27° Northeast  Level Estimated
Sun 07:09:00 AM 41.6399 140.9117 27° Northeast  Level Estimated
Sun 07:10:00 AM 41.7503 140.9862 27° Northeast  Level Estimated
Sun 07:11:00 AM 41.8606 141.0610 27° Northeast  Level Estimated
Sun 07:12:00 AM 41.9709 141.1360 27° Northeast  Level Estimated
Sun 07:13:00 AM 42.0811 141.2113 27° Northeast  Level Estimated
Sun 07:14:00 AM 42.1913 141.2868 27° Northeast  Level Estimated
Sun 07:15:00 AM 42.3014 141.3627 27° Northeast  Level Estimated
Sun 07:16:00 AM 42.4115 141.4387 27° Northeast  Level Estimated
Sun 07:17:00 AM 42.5215 141.5151 27° Northeast  Level Estimated
Sun 07:18:00 AM 42.6315 141.5917 27° Northeast  Level Estimated
Sun 07:19:00 AM 42.7414 141.6686 27° Northeast  Level Estimated
Sun 07:20:00 AM 42.7752 141.6923 27° Northeast  Level Estimated
Sun 07:21:00 AM 42.7752 141.6923 90° East  Level Estimated
Sun 07:22:00 AM 42.7752 141.6923 90° East  Level Estimated
Sun 07:23:00 AM 42.7752 141.6923 90° East  Level Estimated
Sun 07:24:00 AM 42.7752 141.6923 90° East  Level Estimated
Sun 07:25:00 AM 42.7752 141.6923 90° East  Level Estimated
Sun 07:26:00 AM 42.7752 141.6923 90° East  Level Estimated
Sun 07:27:00 AM 42.7752 141.6923 90° East  Level Estimated
Sun 07:28:00 AM 42.7752 141.6923 90° East  Level Estimated
Sun 07:29:00 AM 42.7752 141.6923 90° East  Level Estimated
Sun 07:30:00 AM 42.7752 141.6923 90° East  Level Estimated
Sun 07:31:00 AM 42.7752 141.6923 90° East  Level Estimated

Login

Don't have an account? Register now (free) for customized features, flight alerts, and more!